createdAt,value
2018-07-30T00:02:04.642Z,25.43
2018-07-30T00:07:06.827Z,25.50
2018-07-30T00:12:08.960Z,25.59
2018-07-30T00:17:11.169Z,25.57
2018-07-30T00:22:13.324Z,25.54
2018-07-30T00:27:15.470Z,25.54
2018-07-30T00:32:17.787Z,25.50
2018-07-30T00:37:19.930Z,25.42
2018-07-30T00:42:22.084Z,25.46
2018-07-30T00:47:24.210Z,25.27
2018-07-30T00:52:26.337Z,25.35
2018-07-30T00:57:28.481Z,25.47
2018-07-30T01:02:30.676Z,25.47
2018-07-30T01:07:32.883Z,25.59
2018-07-30T01:12:35.023Z,25.59
2018-07-30T01:17:37.190Z,25.57
2018-07-30T01:22:39.348Z,25.49
2018-07-30T01:27:41.479Z,25.45
2018-07-30T01:32:43.624Z,25.56
2018-07-30T01:37:45.777Z,25.56
2018-07-30T01:42:47.955Z,25.60
2018-07-30T01:47:50.112Z,25.59
2018-07-30T01:52:52.253Z,25.60
2018-07-30T01:57:54.421Z,25.58
2018-07-30T02:02:56.560Z,25.62
2018-07-30T02:07:58.651Z,25.65
2018-07-30T02:13:00.735Z,25.61
2018-07-30T02:18:02.928Z,25.56
2018-07-30T02:23:05.119Z,25.54
2018-07-30T02:28:07.282Z,25.47
2018-07-30T02:33:09.403Z,25.55
2018-07-30T02:38:11.590Z,25.56
2018-07-30T02:43:13.773Z,25.45
2018-07-30T02:48:15.919Z,25.49
2018-07-30T02:53:18.139Z,25.49
2018-07-30T02:58:20.277Z,25.50
2018-07-30T03:03:22.373Z,25.53
2018-07-30T03:08:24.517Z,25.51
2018-07-30T03:13:26.684Z,25.56
2018-07-30T03:18:28.840Z,25.58
2018-07-30T03:23:30.976Z,25.59
2018-07-30T03:28:33.108Z,25.55
2018-07-30T03:33:42.222Z,25.47
2018-07-30T03:38:44.628Z,25.39
2018-07-30T03:43:46.802Z,25.36
2018-07-30T03:48:48.977Z,25.28
2018-07-30T03:53:51.090Z,25.32
2018-07-30T03:58:53.279Z,25.38
2018-07-30T04:03:55.527Z,25.39
2018-07-30T04:08:57.636Z,25.38
2018-07-30T04:13:59.759Z,25.39
2018-07-30T04:19:01.954Z,25.48
2018-07-30T04:24:04.100Z,25.56
2018-07-30T04:29:06.432Z,25.61
2018-07-30T04:34:08.611Z,25.67
2018-07-30T04:39:12.326Z,25.68
2018-07-30T04:44:14.467Z,25.71
2018-07-30T04:49:16.679Z,25.66
2018-07-30T04:54:18.779Z,25.70
2018-07-30T04:59:20.914Z,25.70
2018-07-30T05:04:23.048Z,25.56
2018-07-30T05:09:25.203Z,25.52
2018-07-30T05:14:27.349Z,25.53
2018-07-30T05:19:29.615Z,25.39
2018-07-30T05:24:31.683Z,25.36
2018-07-30T05:29:33.923Z,25.33
2018-07-30T05:34:36.082Z,25.44
2018-07-30T05:39:38.389Z,25.44
2018-07-30T05:44:40.543Z,25.34
2018-07-30T05:49:42.686Z,25.42
2018-07-30T05:54:44.893Z,25.28
2018-07-30T05:59:47.049Z,25.17
2018-07-30T06:04:49.228Z,25.09
2018-07-30T06:09:51.383Z,25.25
2018-07-30T06:14:53.578Z,25.28
2018-07-30T06:19:55.765Z,25.39
2018-07-30T06:24:57.941Z,25.42
2018-07-30T06:30:00.121Z,25.49
2018-07-30T06:35:02.315Z,25.51
2018-07-30T06:40:04.665Z,25.47
2018-07-30T06:45:06.882Z,25.56
2018-07-30T06:50:09.031Z,25.56
2018-07-30T06:55:11.455Z,25.48
2018-07-30T07:00:13.911Z,25.51
2018-07-30T07:05:16.135Z,25.22
2018-07-30T07:10:18.355Z,25.22
2018-07-30T07:15:20.557Z,25.60
2018-07-30T07:20:22.751Z,26.12
2018-07-30T07:25:24.927Z,26.68
2018-07-30T07:30:27.836Z,26.91
2018-07-30T07:35:30.021Z,26.70
2018-07-30T07:40:32.179Z,26.68
2018-07-30T07:45:34.574Z,26.63
2018-07-30T07:50:36.800Z,26.68
2018-07-30T07:55:38.951Z,26.76
2018-07-30T08:00:41.169Z,26.84
2018-07-30T08:05:43.680Z,26.91
2018-07-30T08:10:45.920Z,26.87
2018-07-30T08:15:49.069Z,26.76
2018-07-30T08:20:51.300Z,26.82
2018-07-30T08:25:53.523Z,26.74
2018-07-30T08:30:55.711Z,26.82
2018-07-30T08:35:57.929Z,26.93
2018-07-30T08:41:00.124Z,26.90
2018-07-30T08:46:02.299Z,26.90
2018-07-30T08:51:04.429Z,26.91
2018-07-30T08:56:06.669Z,27.10
2018-07-30T09:01:09.776Z,27.41
2018-07-30T09:06:11.927Z,27.50
2018-07-30T09:11:14.132Z,27.55
2018-07-30T09:16:16.376Z,27.67
2018-07-30T09:21:18.564Z,27.61
2018-07-30T09:26:20.745Z,27.55
2018-07-30T09:31:22.946Z,27.76
2018-07-30T09:36:25.989Z,28.21
2018-07-30T09:41:28.176Z,28.23
2018-07-30T09:46:30.794Z,28.57
2018-07-30T09:51:32.994Z,28.49
2018-07-30T09:56:35.369Z,28.90
2018-07-30T10:01:37.640Z,29.15
2018-07-30T10:06:39.786Z,29.40
2018-07-30T10:11:42.037Z,29.66
2018-07-30T10:16:45.192Z,29.73
2018-07-30T10:21:47.443Z,29.86
2018-07-30T10:26:49.632Z,29.54
2018-07-30T10:31:51.842Z,29.52
2018-07-30T10:36:54.047Z,29.45
2018-07-30T10:41:56.307Z,29.48
2018-07-30T10:46:58.496Z,29.51
2018-07-30T10:52:00.666Z,29.80
2018-07-30T10:57:02.897Z,30.04
2018-07-30T11:02:05.149Z,30.13
2018-07-30T11:07:07.448Z,30.44
2018-07-30T11:12:09.696Z,30.68
2018-07-30T11:17:11.863Z,30.77
2018-07-30T11:22:14.105Z,30.30
2018-07-30T11:27:16.940Z,30.48
2018-07-30T11:32:19.236Z,30.52
2018-07-30T11:37:21.428Z,30.58
2018-07-30T11:42:23.780Z,30.79
2018-07-30T11:47:25.972Z,30.99
2018-07-30T11:52:28.215Z,31.19
2018-07-30T11:57:30.690Z,31.42
2018-07-30T12:02:32.930Z,31.70
2018-07-30T12:07:35.134Z,31.66
2018-07-30T12:12:37.302Z,31.40
2018-07-30T12:17:39.487Z,31.12
2018-07-30T12:22:41.709Z,30.78
2018-07-30T12:27:43.923Z,30.68
2018-07-30T12:32:46.126Z,30.54
2018-07-30T12:37:48.300Z,30.39
2018-07-30T12:42:50.487Z,30.35
2018-07-30T12:47:52.659Z,30.50
2018-07-30T12:52:54.837Z,30.96
2018-07-30T12:57:57.051Z,31.81
2018-07-30T13:03:06.206Z,31.84
2018-07-30T13:08:08.440Z,31.86
2018-07-30T13:13:10.643Z,31.93
2018-07-30T13:18:13.033Z,31.98
2018-07-30T13:23:15.306Z,32.23
2018-07-30T13:28:17.648Z,32.45
2018-07-30T13:33:19.841Z,32.76
2018-07-30T13:38:22.026Z,32.65
2018-07-30T13:43:24.202Z,32.67
2018-07-30T13:48:26.347Z,33.78
2018-07-30T13:53:28.532Z,34.26
2018-07-30T13:58:30.702Z,34.85
2018-07-30T14:03:32.951Z,35.32
2018-07-30T14:08:35.191Z,35.95
2018-07-30T14:13:37.430Z,35.22
2018-07-30T14:18:39.669Z,35.63
2018-07-30T14:23:41.886Z,34.64
2018-07-30T14:28:44.031Z,33.99
2018-07-30T14:33:46.193Z,33.04
2018-07-30T14:38:48.359Z,33.50
2018-07-30T14:43:50.547Z,33.69
2018-07-30T14:48:52.770Z,33.27
2018-07-30T14:53:54.909Z,33.32
2018-07-30T14:58:57.074Z,32.77
2018-07-30T15:03:59.214Z,32.48
2018-07-30T15:09:01.368Z,32.26
2018-07-30T15:14:03.684Z,32.31
2018-07-30T15:19:06.663Z,31.84
2018-07-30T15:24:08.848Z,31.36
2018-07-30T15:29:11.019Z,31.09
2018-07-30T15:34:13.156Z,31.02
2018-07-30T15:39:15.338Z,31.10
2018-07-30T15:44:17.490Z,31.19
2018-07-30T15:49:19.692Z,32.26
2018-07-30T15:54:21.862Z,32.41
2018-07-30T15:59:24.026Z,32.60
2018-07-30T16:04:26.216Z,33.13
2018-07-30T16:09:28.479Z,34.03
2018-07-30T16:14:30.670Z,34.39
2018-07-30T16:19:32.865Z,34.28
2018-07-30T16:24:35.090Z,33.75
2018-07-30T16:29:37.274Z,33.24
2018-07-30T16:34:39.449Z,33.98
2018-07-30T16:39:41.636Z,34.55
2018-07-30T16:44:43.866Z,34.37
2018-07-30T16:49:46.003Z,34.41
2018-07-30T16:54:48.178Z,34.69
2018-07-30T16:59:50.346Z,34.77
2018-07-30T17:04:52.517Z,34.73
2018-07-30T17:09:54.704Z,34.29
2018-07-30T17:14:56.874Z,33.13
2018-07-30T17:19:59.051Z,32.22
2018-07-30T17:25:01.254Z,31.47
2018-07-30T17:30:04.208Z,31.34
2018-07-30T17:35:06.668Z,30.81
2018-07-30T17:40:09.469Z,30.57
2018-07-30T17:45:12.863Z,30.25
2018-07-30T17:50:15.035Z,30.03
2018-07-30T17:55:17.212Z,29.93
2018-07-30T18:00:19.392Z,29.85
2018-07-30T18:05:21.555Z,29.57
2018-07-30T18:10:23.754Z,29.52
2018-07-30T18:15:25.958Z,29.43
2018-07-30T18:20:28.167Z,29.44
2018-07-30T18:25:30.455Z,29.41
2018-07-30T18:30:32.714Z,29.38
2018-07-30T18:35:34.822Z,29.28
2018-07-30T18:40:36.992Z,29.15
2018-07-30T18:45:39.147Z,29.03
2018-07-30T18:50:41.329Z,29.03
2018-07-30T18:55:43.532Z,29.02
2018-07-30T19:00:45.727Z,28.99
2018-07-30T19:05:47.947Z,28.92
2018-07-30T19:10:50.153Z,28.81
2018-07-30T19:15:52.366Z,28.45
2018-07-30T19:20:54.495Z,28.29
2018-07-30T19:25:56.719Z,28.32
2018-07-30T19:30:58.941Z,28.28
2018-07-30T19:36:01.193Z,28.25
2018-07-30T19:41:03.451Z,28.26
2018-07-30T19:46:05.647Z,28.17
2018-07-30T19:51:07.838Z,28.13
2018-07-30T19:56:10.040Z,28.13
2018-07-30T20:01:12.218Z,28.03
2018-07-30T20:06:14.367Z,28.09
2018-07-30T20:11:16.560Z,28.06
2018-07-30T20:16:19.211Z,28.11
2018-07-30T20:21:21.467Z,28.12
2018-07-30T20:26:23.666Z,28.15
2018-07-30T20:31:26.758Z,28.14
2018-07-30T20:36:28.935Z,28.15
2018-07-30T20:41:31.090Z,28.16
2018-07-30T20:46:33.329Z,28.16
2018-07-30T20:51:35.503Z,28.11
2018-07-30T20:56:37.687Z,28.06
2018-07-30T21:01:39.917Z,28.05
2018-07-30T21:06:42.310Z,27.98
2018-07-30T21:11:44.507Z,28.01
2018-07-30T21:16:47.032Z,28.04
2018-07-30T21:21:49.235Z,28.05
2018-07-30T21:26:51.418Z,28.07
2018-07-30T21:31:53.580Z,28.07
2018-07-30T21:36:55.732Z,28.07
2018-07-30T21:41:57.913Z,28.06
2018-07-30T21:47:00.065Z,28.05
2018-07-30T21:52:02.223Z,28.05
2018-07-30T21:57:04.609Z,28.02
2018-07-30T22:02:06.795Z,27.79
2018-07-30T22:07:08.978Z,27.69
2018-07-30T22:12:11.199Z,27.66
2018-07-30T22:17:13.339Z,27.64
2018-07-30T22:22:15.516Z,27.56
2018-07-30T22:27:17.704Z,27.44
2018-07-30T22:32:19.941Z,27.44
2018-07-30T22:37:22.100Z,27.37
2018-07-30T22:42:24.247Z,27.42
2018-07-30T22:47:26.406Z,27.45
2018-07-30T22:52:28.622Z,27.40
2018-07-30T22:57:31.297Z,27.39
2018-07-30T23:02:33.434Z,27.24
2018-07-30T23:07:35.783Z,27.24
2018-07-30T23:12:37.950Z,27.28
2018-07-30T23:17:40.105Z,27.25
2018-07-30T23:22:42.295Z,27.24
2018-07-30T23:27:44.504Z,27.24
2018-07-30T23:32:46.654Z,27.20
2018-07-30T23:37:48.826Z,27.13
2018-07-30T23:42:50.990Z,27.05
2018-07-30T23:47:53.175Z,27.09
2018-07-30T23:52:56.274Z,26.99
2018-07-30T23:57:58.412Z,26.98
